createdAt,value
2018-08-10T00:02:44.639Z,100784.52
2018-08-10T00:05:15.381Z,100797.77
2018-08-10T00:07:45.112Z,100798.55
2018-08-10T00:10:18.442Z,100806.46
2018-08-10T00:12:58.780Z,100823.75
2018-08-10T00:15:28.594Z,100827.53
2018-08-10T00:18:09.254Z,100824.39
2018-08-10T00:20:39.089Z,100836.77
2018-08-10T00:23:14.925Z,100840.44
2018-08-10T00:25:45.141Z,100849.80
2018-08-10T00:28:14.910Z,100851.16
2018-08-10T00:30:48.618Z,100858.18
2018-08-10T00:33:18.318Z,100863.57
2018-08-10T00:36:12.536Z,100862.59
2018-08-10T00:38:42.690Z,100885.55
2018-08-10T00:41:12.466Z,100884.11
2018-08-10T00:43:46.564Z,100897.67
2018-08-10T00:46:16.322Z,100904.06
2018-08-10T00:55:12.150Z,100917.94
2018-08-10T00:57:52.381Z,100927.29
2018-08-10T01:00:24.167Z,100936.33
2018-08-10T01:03:21.031Z,100937.03
2018-08-10T01:06:13.066Z,100941.70
2018-08-10T01:08:42.930Z,100949.97
2018-08-10T01:11:13.569Z,100954.16
2018-08-10T01:13:46.651Z,100961.14
2018-08-10T01:16:32.159Z,100958.89
2018-08-10T01:19:01.955Z,100971.80
2018-08-10T01:21:56.965Z,100969.14
2018-08-10T01:24:26.706Z,100975.14
2018-08-10T01:27:14.472Z,100981.66
2018-08-10T01:29:44.941Z,100978.38
2018-08-10T01:32:14.750Z,100985.63
2018-08-10T01:34:44.465Z,100991.91
2018-08-10T01:37:14.214Z,100992.66
2018-08-10T01:39:43.917Z,100999.86
2018-08-10T01:42:13.695Z,100999.86
2018-08-10T01:44:43.438Z,101001.94
2018-08-10T01:47:13.093Z,101009.02
2018-08-10T01:49:42.769Z,101012.58
2018-08-10T01:52:12.542Z,101014.22
2018-08-10T01:54:42.245Z,101018.86
2018-08-10T01:57:12.022Z,101022.41
2018-08-10T02:00:02.812Z,101024.72
2018-08-10T02:02:32.454Z,101024.84
2018-08-10T02:05:02.194Z,101033.56
2018-08-10T02:07:31.967Z,101034.42
2018-08-10T02:10:01.635Z,101034.16
2018-08-10T02:15:47.536Z,101035.95
2018-08-10T02:18:17.226Z,101044.41
2018-08-10T02:21:11.151Z,101038.63
2018-08-10T02:23:40.810Z,101038.91
2018-08-10T02:29:10.946Z,101046.04
2018-08-10T02:31:40.676Z,101045.36
2018-08-10T02:34:10.343Z,101048.84
2018-08-10T02:36:40.093Z,101059.33
2018-08-10T02:39:11.950Z,101060.85
2018-08-10T02:41:41.665Z,101072.55
2018-08-10T02:44:34.409Z,101067.84
2018-08-10T02:47:04.193Z,101069.38
2018-08-10T02:49:33.854Z,101080.17
2018-08-10T02:52:57.943Z,101088.84
2018-08-10T02:55:27.707Z,101094.77
2018-08-10T02:57:57.477Z,101104.17
2018-08-10T03:00:27.160Z,101108.37
2018-08-10T03:03:21.210Z,101114.14
2018-08-10T03:09:18.770Z,101119.58
2018-08-10T03:11:52.470Z,101116.94
2018-08-10T03:14:22.150Z,101123.95
2018-08-10T03:16:51.807Z,101132.77
2018-08-10T03:19:21.522Z,101128.50
2018-08-10T03:21:51.551Z,101135.77
2018-08-10T03:27:22.237Z,101134.63
2018-08-10T03:29:51.970Z,101139.24
2018-08-10T03:32:21.734Z,101144.93
2018-08-10T03:34:51.420Z,101143.44
2018-08-10T03:37:22.171Z,101148.34
2018-08-10T03:40:19.747Z,101141.73
2018-08-10T03:42:50.112Z,101157.94
2018-08-10T03:45:19.855Z,101153.92
2018-08-10T03:47:52.874Z,101157.56
2018-08-10T03:50:22.572Z,101161.16
2018-08-10T03:52:52.268Z,101173.77
2018-08-10T03:55:22.003Z,101160.05
2018-08-10T03:57:52.045Z,101168.47
2018-08-10T04:00:21.783Z,101170.91
2018-08-10T04:02:51.749Z,101173.98
2018-08-10T04:05:21.402Z,101182.02
2018-08-10T04:07:51.862Z,101179.19
2018-08-10T04:10:21.738Z,101179.67
2018-08-10T04:12:51.624Z,101179.72
2018-08-10T05:01:05.506Z,101222.17
2018-08-10T05:03:35.401Z,101228.55
2018-08-10T05:09:10.625Z,101230.33
2018-08-10T05:14:40.562Z,101233.64
2018-08-10T05:17:10.399Z,101233.95
2018-08-10T05:19:40.457Z,101242.59
2018-08-10T05:22:10.474Z,101233.73
2018-08-10T05:24:40.270Z,101242.70
2018-08-10T05:27:10.011Z,101250.30
2018-08-10T05:29:40.334Z,101245.41
2018-08-10T05:32:10.246Z,101246.36
2018-08-10T05:34:39.991Z,101250.48
2018-08-10T05:37:10.168Z,101253.86
2018-08-10T05:39:39.986Z,101255.75
2018-08-10T05:42:15.821Z,101257.45
2018-08-10T05:44:45.617Z,101258.74
2018-08-10T05:47:16.532Z,101263.81
2018-08-10T05:49:47.147Z,101263.85
2018-08-10T05:52:43.405Z,101270.34
2018-08-10T05:55:17.039Z,101269.20
2018-08-10T05:57:46.795Z,101272.49
2018-08-10T06:00:16.513Z,101273.42
2018-08-10T06:02:46.345Z,101280.48
2018-08-10T06:05:16.202Z,101279.64
2018-08-10T06:07:46.384Z,101283.12
2018-08-10T06:10:16.230Z,101286.41
2018-08-10T06:13:02.131Z,101280.00
2018-08-10T06:15:31.877Z,101285.45
2018-08-10T06:18:01.572Z,101291.78
2018-08-10T06:20:31.758Z,101290.70
2018-08-10T06:23:02.043Z,101284.73
2018-08-10T06:25:55.052Z,101288.64
2018-08-10T06:28:24.855Z,101295.34
2018-08-10T06:33:59.624Z,101302.57
2018-08-10T06:36:34.159Z,101296.94
2018-08-10T06:39:04.195Z,101301.06
2018-08-10T06:41:33.998Z,101309.45
2018-08-10T06:44:04.018Z,101307.02
2018-08-10T06:46:55.887Z,101305.59
2018-08-10T06:49:25.820Z,101312.06
2018-08-10T06:51:55.626Z,101306.81
2018-08-10T07:08:22.964Z,101320.78
2018-08-10T07:10:52.725Z,101318.99
2018-08-10T07:13:32.878Z,101327.98
2018-08-10T07:19:03.015Z,101329.25
2018-08-10T07:21:32.952Z,101327.36
2018-08-10T07:24:02.721Z,101342.67
2018-08-10T07:26:33.292Z,101337.27
2018-08-10T07:30:11.128Z,101344.50
2018-08-10T07:33:02.818Z,101341.48
2018-08-10T07:35:33.413Z,101336.28
2018-08-10T07:38:03.553Z,101342.03
2018-08-10T07:40:33.374Z,101340.03
2018-08-10T07:43:03.155Z,101343.89
2018-08-10T07:45:33.226Z,101345.58
2018-08-10T07:48:18.874Z,101339.23
2018-08-10T07:50:49.055Z,101351.89
2018-08-10T07:53:18.934Z,101355.03
2018-08-10T07:55:48.673Z,101351.44
2018-08-10T07:58:18.504Z,101359.80
2018-08-10T08:00:51.850Z,101347.81
2018-08-10T08:06:21.890Z,101360.08
2018-08-10T08:08:51.664Z,101357.44
2018-08-10T08:11:21.703Z,101352.64
2018-08-10T08:13:51.568Z,101369.10
2018-08-10T08:16:21.546Z,101362.72
2018-08-10T08:18:51.412Z,101361.11
2018-08-10T08:21:21.363Z,101355.92
2018-08-10T08:23:51.163Z,101361.12
2018-08-10T08:26:50.879Z,101355.49
2018-08-10T08:32:30.231Z,101345.93
2018-08-10T08:35:00.664Z,101347.24
2018-08-10T08:37:30.473Z,101348.78
2018-08-10T08:40:15.858Z,101355.27
2018-08-10T08:46:09.954Z,101354.37
2018-08-10T08:55:18.917Z,101353.19
2018-08-10T08:57:48.783Z,101347.45
2018-08-10T09:00:31.664Z,101350.14
2018-08-10T09:03:01.421Z,101355.34
2018-08-10T09:05:31.193Z,101351.14
2018-08-10T09:08:27.629Z,101359.80
2018-08-10T09:10:59.457Z,101356.98
2018-08-10T09:14:46.157Z,101355.85
2018-08-10T09:20:23.741Z,101368.16
2018-08-10T09:22:59.510Z,101362.97
2018-08-10T09:25:29.371Z,101364.76
2018-08-10T09:27:59.354Z,101360.34
2018-08-10T09:30:29.576Z,101352.95
2018-08-10T09:33:00.675Z,101362.07
2018-08-10T09:35:30.505Z,101361.53
2018-08-10T09:38:00.415Z,101362.84
2018-08-10T09:40:30.470Z,101363.69
2018-08-10T09:46:11.615Z,101368.63
2018-08-10T09:48:41.954Z,101371.26
2018-08-10T09:51:11.656Z,101370.27
2018-08-10T09:53:41.489Z,101359.22
2018-08-10T09:56:11.251Z,101372.58
2018-08-10T09:58:41.182Z,101362.16
2018-08-10T10:01:40.571Z,101362.31
2018-08-10T10:04:10.482Z,101361.42
2018-08-10T10:06:40.394Z,101354.53
2018-08-10T10:09:11.548Z,101369.20
2018-08-10T10:11:41.351Z,101371.97
2018-08-10T10:14:11.230Z,101375.98
2018-08-10T10:16:41.090Z,101373.80
2018-08-10T10:19:36.211Z,101373.15
2018-08-10T10:22:06.247Z,101368.80
2018-08-10T10:24:36.166Z,101364.69
2018-08-10T10:27:31.466Z,101356.33
2018-08-10T10:30:01.465Z,101360.92
2018-08-10T10:32:32.005Z,101369.25
2018-08-10T10:35:01.924Z,101370.83
2018-08-10T10:37:39.822Z,101373.36
2018-08-10T10:40:10.977Z,101375.99
2018-08-10T10:42:40.962Z,101368.39
2018-08-10T10:45:13.328Z,101363.72
2018-08-10T10:48:00.792Z,101355.15
2018-08-10T10:50:30.792Z,101352.16
2018-08-10T10:53:06.008Z,101353.20
2018-08-10T10:55:39.156Z,101343.09
2018-08-10T10:58:32.867Z,101346.70
2018-08-10T11:01:10.859Z,101348.64
2018-08-10T11:03:40.769Z,101351.30
2018-08-10T11:06:11.409Z,101346.09
2018-08-10T11:08:41.258Z,101344.19
2018-08-10T11:14:12.058Z,101355.47
2018-08-10T11:16:41.958Z,101347.68
2018-08-10T11:19:34.590Z,101349.13
2018-08-10T11:22:16.047Z,101348.03
2018-08-10T11:27:46.085Z,101328.09
2018-08-10T11:30:15.886Z,101331.66
2018-08-10T11:32:45.668Z,101333.67
2018-08-10T11:35:15.855Z,101327.45
2018-08-10T11:37:45.870Z,101332.59
2018-08-10T11:40:16.102Z,101325.19
2018-08-10T11:42:45.925Z,101323.57
2018-08-10T11:45:42.007Z,101321.41
2018-08-10T11:48:11.743Z,101326.55
2018-08-10T12:04:35.085Z,101346.38
2018-08-10T12:07:05.042Z,101329.13
2018-08-10T12:09:40.870Z,101331.44
2018-08-10T12:12:10.618Z,101340.08
2018-08-10T12:14:41.146Z,101327.99
2018-08-10T12:20:11.544Z,101328.85
2018-08-10T12:22:42.275Z,101323.77
2018-08-10T12:25:11.985Z,101318.53
2018-08-10T12:28:07.462Z,101333.42
2018-08-10T12:30:41.288Z,101325.33
2018-08-10T12:33:10.959Z,101327.99
2018-08-10T12:35:41.053Z,101319.58
2018-08-10T12:38:10.982Z,101327.91
2018-08-10T12:43:51.977Z,101321.34
2018-08-10T12:49:41.152Z,101314.23
2018-08-10T12:52:12.282Z,101320.48
2018-08-10T12:54:42.948Z,101316.78
2018-08-10T12:57:42.645Z,101319.73
2018-08-10T13:00:14.458Z,101318.70
2018-08-10T13:02:44.874Z,101314.48
2018-08-10T13:08:42.501Z,101311.45
2018-08-10T13:11:44.139Z,101305.44
2018-08-10T13:14:40.428Z,101306.73
2018-08-10T13:17:10.644Z,101306.94
2018-08-10T13:19:40.804Z,101308.05
2018-08-10T13:57:15.144Z,101280.94
2018-08-10T13:59:51.052Z,101291.36
2018-08-10T14:02:26.803Z,101273.40
2018-08-10T14:04:56.754Z,101282.16
2018-08-10T14:07:28.707Z,101285.14
2018-08-10T14:09:58.575Z,101286.03
2018-08-10T14:12:28.318Z,101277.24
2018-08-10T14:14:58.079Z,101277.55
2018-08-10T14:17:29.053Z,101266.13
2018-08-10T14:19:59.016Z,101277.40
2018-08-10T14:22:29.034Z,101266.47
2018-08-10T14:24:58.878Z,101262.80
2018-08-10T14:27:28.957Z,101275.69
2018-08-10T14:29:58.718Z,101277.47
2018-08-10T14:32:28.870Z,101262.29
2018-08-10T14:34:59.242Z,101265.45
2018-08-10T14:37:28.909Z,101255.22
2018-08-10T14:39:58.972Z,101247.53
2018-08-10T14:42:28.855Z,101253.17
2018-08-10T14:45:01.372Z,101255.74
2018-08-10T14:47:33.089Z,101245.98
2018-08-10T14:50:03.306Z,101247.44
2018-08-10T14:52:33.057Z,101244.49
2018-08-10T14:55:02.982Z,101252.73
2018-08-10T14:57:34.306Z,101239.39
2018-08-10T15:00:12.552Z,101246.02
2018-08-10T15:02:42.480Z,101238.47
2018-08-10T15:05:12.893Z,101242.62
2018-08-10T15:07:43.289Z,101246.00
2018-08-10T15:13:09.859Z,101227.63
2018-08-10T15:15:39.792Z,101232.48
2018-08-10T15:18:09.929Z,101226.94
2018-08-10T15:20:39.701Z,101223.81
2018-08-10T15:23:09.571Z,101218.09
2018-08-10T15:25:39.783Z,101219.81
2018-08-10T15:28:09.940Z,101230.11
2018-08-10T15:30:39.998Z,101226.39
2018-08-10T15:33:12.670Z,101228.86
2018-08-10T15:35:42.757Z,101224.06
2018-08-10T15:38:12.578Z,101224.59
2018-08-10T15:40:42.384Z,101218.50
2018-08-10T15:43:12.316Z,101220.53
2018-08-10T15:45:44.779Z,101214.91
2018-08-10T15:48:15.173Z,101214.60
2018-08-10T15:50:46.030Z,101216.30
2018-08-10T15:53:17.535Z,101220.50
2018-08-10T15:55:47.547Z,101215.72
2018-08-10T15:58:17.587Z,101214.11
2018-08-10T16:00:47.509Z,101215.24
2018-08-10T16:03:18.281Z,101218.55
2018-08-10T16:05:48.321Z,101206.63
2018-08-10T16:08:19.061Z,101212.69
2018-08-10T16:10:48.920Z,101206.67
2018-08-10T16:13:18.771Z,101208.41
2018-08-10T16:15:48.534Z,101208.75
2018-08-10T16:18:19.034Z,101205.18
2018-08-10T16:20:49.658Z,101197.25
2018-08-10T16:23:19.629Z,101201.36
2018-08-10T16:25:52.055Z,101195.80
2018-08-10T16:28:22.372Z,101195.42
2018-08-10T16:30:52.293Z,101197.31
2018-08-10T16:33:22.353Z,101186.53
2018-08-10T16:35:52.145Z,101191.77
2018-08-10T16:38:22.473Z,101197.70
2018-08-10T16:40:53.174Z,101188.38
2018-08-10T16:43:23.033Z,101191.16
2018-08-10T16:46:14.635Z,101192.72
2018-08-10T16:49:06.094Z,101190.55
2018-08-10T16:51:47.430Z,101190.70
2018-08-10T16:54:17.278Z,101189.17
2018-08-10T16:56:47.235Z,101179.64
2018-08-10T16:59:17.143Z,101184.45
2018-08-10T17:02:11.555Z,101187.95
2018-08-10T17:04:45.565Z,101180.47
2018-08-10T17:07:15.415Z,101187.04
2018-08-10T17:09:45.279Z,101180.74
2018-08-10T17:12:15.219Z,101178.21
2018-08-10T17:14:45.164Z,101180.02
2018-08-10T17:17:15.050Z,101182.09
2018-08-10T17:19:44.746Z,101169.06
2018-08-10T17:22:14.395Z,101175.03
2018-08-10T17:24:44.089Z,101169.01
2018-08-10T17:27:13.812Z,101168.23
2018-08-10T17:29:43.624Z,101166.04
2018-08-10T17:32:13.889Z,101174.00
2018-08-10T17:34:43.965Z,101169.07
2018-08-10T17:37:13.649Z,101170.08
2018-08-10T17:39:43.606Z,101165.30
2018-08-10T17:42:13.398Z,101170.49
2018-08-10T17:44:43.353Z,101171.19
2018-08-10T17:47:13.338Z,101166.83
2018-08-10T17:49:43.349Z,101163.06
2018-08-10T17:52:13.491Z,101164.89
2018-08-10T17:54:43.247Z,101160.25
2018-08-10T17:57:13.066Z,101178.53
2018-08-10T17:59:42.840Z,101158.73
2018-08-10T18:02:13.211Z,101170.41
2018-08-10T18:04:43.227Z,101165.94
2018-08-10T18:07:13.082Z,101171.38
2018-08-10T18:09:43.006Z,101171.73
2018-08-10T18:12:12.903Z,101163.52
2018-08-10T18:14:42.783Z,101170.89
2018-08-10T18:17:12.557Z,101176.30
2018-08-10T18:19:42.811Z,101168.10
2018-08-10T18:22:12.505Z,101168.84
2018-08-10T18:25:05.978Z,101169.55
2018-08-10T18:27:35.992Z,101170.03
2018-08-10T18:30:09.995Z,101167.27
2018-08-10T18:32:40.098Z,101168.18
2018-08-10T18:35:11.535Z,101169.48
2018-08-10T18:37:42.566Z,101162.55
2018-08-10T18:40:13.738Z,101164.64
2018-08-10T18:42:44.994Z,101162.09
2018-08-10T18:45:16.701Z,101162.06
2018-08-10T18:47:46.582Z,101164.23
2018-08-10T18:50:20.923Z,101163.50
2018-08-10T18:52:51.587Z,101164.91
2018-08-10T18:55:23.123Z,101167.67
2018-08-10T18:57:53.328Z,101170.88
2018-08-10T19:00:26.902Z,101172.33
2018-08-10T19:02:56.860Z,101175.45
2018-08-10T19:05:26.824Z,101178.63
2018-08-10T19:07:56.645Z,101169.31
2018-08-10T19:10:27.933Z,101174.69
2018-08-10T19:12:57.647Z,101174.89
2018-08-10T19:15:27.901Z,101173.33
2018-08-10T19:17:58.017Z,101174.47
2018-08-10T19:20:27.757Z,101173.59
2018-08-10T19:22:57.726Z,101174.83
2018-08-10T19:25:27.684Z,101173.94
2018-08-10T19:27:57.584Z,101182.19
2018-08-10T19:30:27.657Z,101177.21
2018-08-10T19:32:57.514Z,101179.31
2018-08-10T19:35:27.179Z,101183.13
2018-08-10T19:37:56.814Z,101183.97
2018-08-10T19:40:27.134Z,101180.67
2018-08-10T19:42:57.109Z,101184.05
2018-08-10T19:45:27.859Z,101184.23
2018-08-10T19:47:58.502Z,101187.48
2018-08-10T19:50:29.146Z,101192.14
2018-08-10T19:52:59.053Z,101186.83
2018-08-10T19:55:29.722Z,101194.98
2018-08-10T19:57:59.502Z,101190.02
2018-08-10T20:00:29.533Z,101194.91
2018-08-10T20:03:00.018Z,101190.95
2018-08-10T20:05:29.936Z,101190.83
2018-08-10T20:08:00.651Z,101197.53
2018-08-10T20:10:31.066Z,101193.42
2018-08-10T20:13:01.099Z,101195.80
2018-08-10T20:15:31.481Z,101193.90
2018-08-10T20:18:01.541Z,101186.91
2018-08-10T20:20:32.553Z,101183.98
2018-08-10T20:23:03.004Z,101184.54
2018-08-10T20:25:32.845Z,101180.02
2018-08-10T20:28:02.935Z,101185.67
2018-08-10T20:30:32.918Z,101181.25
2018-08-10T20:33:02.682Z,101177.19
2018-08-10T20:35:32.771Z,101184.42
2018-08-10T20:38:02.771Z,101179.09
2018-08-10T20:40:32.566Z,101183.97
2018-08-10T20:43:02.409Z,101181.30
2018-08-10T20:45:33.724Z,101172.56
2018-08-10T20:48:03.571Z,101174.91
2018-08-10T20:50:34.017Z,101177.58
2018-08-10T20:53:03.906Z,101176.21
2018-08-10T20:55:33.740Z,101169.37
2018-08-10T20:58:03.462Z,101178.47
2018-08-10T21:00:33.248Z,101175.70
2018-08-10T21:03:03.231Z,101176.21
2018-08-10T21:05:38.432Z,101166.46
2018-08-10T21:08:08.236Z,101172.78
2018-08-10T21:10:38.043Z,101174.46
2018-08-10T21:13:07.836Z,101171.75
2018-08-10T21:15:37.790Z,101175.91
2018-08-10T21:18:08.046Z,101168.98
2018-08-10T21:20:38.531Z,101164.89
2018-08-10T21:23:08.419Z,101157.55
2018-08-10T21:25:38.034Z,101155.94
2018-08-10T21:28:22.378Z,101158.53
2018-08-10T21:30:52.254Z,101156.17
2018-08-10T21:33:22.118Z,101152.84
2018-08-10T21:35:54.055Z,101154.42
2018-08-10T21:38:23.793Z,101157.88
2018-08-10T21:40:53.541Z,101150.75
2018-08-10T21:43:23.641Z,101149.28
2018-08-10T21:45:53.452Z,101152.73
2018-08-10T21:48:23.356Z,101155.94
2018-08-10T21:50:53.377Z,101150.45
2018-08-10T21:53:23.165Z,101150.45
2018-08-10T21:55:52.837Z,101152.77
2018-08-10T21:59:54.072Z,101146.23
2018-08-10T22:02:25.442Z,101149.77
2018-08-10T22:04:56.322Z,101150.94
2018-08-10T22:07:26.899Z,101151.95
2018-08-10T22:09:56.739Z,101153.76
2018-08-10T22:12:26.462Z,101155.29
2018-08-10T22:15:01.265Z,101148.44
2018-08-10T22:17:36.562Z,101152.48
2018-08-10T22:20:06.764Z,101145.32
2018-08-10T22:22:36.730Z,101147.23
2018-08-10T22:25:06.641Z,101143.19
2018-08-10T22:27:36.528Z,101140.22
2018-08-10T22:30:07.206Z,101145.55
2018-08-10T22:32:37.163Z,101146.59
2018-08-10T22:35:06.919Z,101142.63
2018-08-10T22:37:36.565Z,101139.52
2018-08-10T22:40:07.329Z,101141.73
2018-08-10T22:42:37.497Z,101139.02
2018-08-10T22:45:08.094Z,101144.87
2018-08-10T22:47:37.836Z,101142.37
2018-08-10T22:50:09.175Z,101137.25
2018-08-10T22:52:39.398Z,101134.87
2018-08-10T22:55:09.494Z,101135.05
2018-08-10T22:57:41.355Z,101138.64
2018-08-10T23:00:11.156Z,101135.23
2018-08-10T23:02:41.002Z,101136.83
2018-08-10T23:05:10.854Z,101131.15
2018-08-10T23:07:40.603Z,101129.64
2018-08-10T23:10:17.284Z,101128.72
2018-08-10T23:12:47.193Z,101127.97
2018-08-10T23:15:17.122Z,101123.33
2018-08-10T23:17:47.364Z,101121.55
2018-08-10T23:20:17.134Z,101123.16
2018-08-10T23:22:47.363Z,101117.61
2018-08-10T23:25:18.035Z,101121.81
2018-08-10T23:27:47.913Z,101119.86
2018-08-10T23:30:29.731Z,101113.36
2018-08-10T23:33:12.593Z,101117.97
2018-08-10T23:35:42.417Z,101117.65
2018-08-10T23:38:12.126Z,101113.40
2018-08-10T23:40:42.217Z,101119.35
2018-08-10T23:43:12.673Z,101107.49
2018-08-10T23:46:09.471Z,101100.88
2018-08-10T23:48:41.862Z,101105.95
2018-08-10T23:51:19.025Z,101100.23
2018-08-10T23:53:54.510Z,101092.91
2018-08-10T23:56:32.089Z,101096.94
2018-08-10T23:59:02.166Z,101089.61
